createdAt,value
2023-01-06T00:00:45.789Z,96.35
2023-01-06T00:03:35.180Z,96.54
2023-01-06T00:06:28.446Z,95.71
2023-01-06T00:09:18.147Z,94.82
2023-01-06T00:12:09.571Z,94.31
2023-01-06T00:14:59.441Z,94.78
2023-01-06T00:17:49.163Z,94.58
2023-01-06T00:20:38.986Z,93.71
2023-01-06T00:23:28.654Z,95.24
2023-01-06T00:26:18.301Z,95.24
2023-01-06T00:29:11.082Z,94.40
2023-01-06T00:32:02.088Z,94.66
2023-01-06T00:34:52.086Z,94.94
2023-01-06T00:37:41.472Z,94.76
2023-01-06T00:40:30.962Z,94.41
2023-01-06T00:43:21.674Z,94.75
2023-01-06T00:46:11.336Z,94.31
2023-01-06T00:49:06.239Z,93.35
2023-01-06T00:51:56.723Z,93.90
2023-01-06T00:54:46.501Z,95.23
2023-01-06T00:57:36.985Z,95.13
2023-01-06T01:00:26.490Z,94.58
2023-01-06T01:03:16.012Z,94.06
2023-01-06T01:06:07.944Z,95.33
2023-01-06T01:08:59.817Z,94.56
2023-01-06T01:12:08.269Z,94.16
2023-01-06T01:14:58.250Z,94.07
2023-01-06T01:17:47.865Z,94.52
2023-01-06T01:20:38.840Z,95.36
2023-01-06T01:23:28.586Z,94.49
2023-01-06T01:25:59.236Z,94.41
2023-01-06T01:28:28.307Z,94.06
2023-01-06T01:31:01.856Z,94.50
2023-01-06T01:33:31.882Z,94.10
2023-01-06T01:36:08.675Z,94.08
2023-01-06T01:38:38.650Z,94.44
2023-01-06T01:41:08.578Z,94.25
2023-01-06T01:43:48.505Z,94.64
2023-01-06T01:46:43.798Z,93.95
2023-01-06T01:49:24.903Z,92.53
2023-01-06T01:51:57.651Z,93.36
2023-01-06T01:54:31.102Z,92.99
2023-01-06T01:57:08.020Z,92.47
2023-01-06T01:59:40.832Z,91.81
2023-01-06T02:02:10.691Z,91.42
2023-01-06T02:04:45.042Z,91.22
2023-01-06T02:07:14.548Z,90.96
2023-01-06T02:09:53.393Z,91.99
2023-01-06T02:12:22.879Z,92.53
2023-01-06T02:14:52.018Z,92.29
2023-01-06T02:17:24.295Z,92.60
2023-01-06T02:20:05.885Z,92.52
2023-01-06T02:22:35.386Z,92.62
2023-01-06T02:25:40.391Z,92.45
2023-01-06T02:28:31.462Z,92.38
2023-01-06T02:31:20.718Z,91.89
2023-01-06T02:34:25.348Z,92.42
2023-01-06T02:37:08.397Z,92.45
2023-01-06T02:40:01.909Z,92.90
2023-01-06T02:42:35.590Z,93.55
2023-01-06T02:45:25.814Z,92.78
2023-01-06T02:48:02.464Z,92.70
2023-01-06T02:50:55.483Z,93.34
2023-01-06T02:53:37.106Z,93.43
2023-01-06T02:56:07.319Z,92.48
2023-01-06T02:58:51.569Z,93.02
2023-01-06T03:01:30.413Z,93.65
2023-01-06T03:04:03.730Z,92.84
2023-01-06T03:06:36.390Z,92.87
2023-01-06T03:09:06.772Z,92.11
2023-01-06T03:11:45.530Z,91.71
2023-01-06T03:14:37.605Z,92.41
2023-01-06T03:17:07.144Z,91.81
2023-01-06T03:19:36.774Z,91.75
2023-01-06T03:22:09.957Z,91.58
2023-01-06T03:24:39.458Z,91.48
2023-01-06T03:27:11.356Z,91.73
2023-01-06T03:29:42.745Z,91.42
2023-01-06T03:32:28.363Z,91.26
2023-01-06T03:35:32.651Z,90.91
2023-01-06T03:38:10.710Z,91.47
2023-01-06T03:40:54.537Z,90.96
2023-01-06T03:43:36.177Z,91.69
2023-01-06T03:46:24.533Z,91.43
2023-01-06T03:48:59.660Z,90.87
2023-01-06T03:51:35.727Z,90.64
2023-01-06T03:54:26.956Z,91.18
2023-01-06T03:57:29.673Z,91.30
2023-01-06T04:00:16.135Z,90.86
2023-01-06T04:02:53.549Z,91.21
2023-01-06T04:05:28.451Z,91.80
2023-01-06T04:07:59.876Z,91.48
2023-01-06T04:10:29.856Z,90.77
2023-01-06T04:13:00.748Z,91.19
2023-01-06T04:15:35.041Z,91.69
2023-01-06T04:18:08.355Z,91.73
2023-01-06T04:20:40.615Z,90.62
2023-01-06T04:23:27.087Z,89.91
2023-01-06T04:25:56.360Z,89.70
2023-01-06T04:28:33.329Z,89.50
2023-01-06T04:31:05.842Z,89.38
2023-01-06T04:33:37.576Z,88.98
2023-01-06T04:36:09.967Z,88.74
2023-01-06T04:38:42.537Z,89.18
2023-01-06T04:41:11.633Z,88.96
2023-01-06T04:43:40.680Z,88.37
2023-01-06T04:46:10.286Z,88.24
2023-01-06T04:48:39.634Z,88.14
2023-01-06T04:51:10.971Z,89.21
2023-01-06T04:53:42.299Z,89.38
2023-01-06T04:56:13.704Z,89.86
2023-01-06T04:58:42.927Z,90.39
2023-01-06T05:01:14.571Z,89.92
2023-01-06T05:03:44.243Z,89.91
2023-01-06T05:06:13.979Z,88.60
2023-01-06T05:08:44.327Z,89.24
2023-01-06T05:11:19.500Z,89.15
2023-01-06T05:13:49.194Z,88.29
2023-01-06T05:16:33.458Z,87.73
2023-01-06T05:19:03.627Z,86.62
2023-01-06T05:21:33.086Z,86.52
2023-01-06T05:24:02.760Z,87.16
2023-01-06T05:26:33.103Z,87.34
2023-01-06T05:29:02.566Z,86.44
2023-01-06T05:31:31.914Z,86.54
2023-01-06T05:34:01.158Z,85.71
2023-01-06T05:36:30.311Z,85.92
2023-01-06T05:38:59.485Z,85.41
2023-01-06T05:41:28.564Z,86.44
2023-01-06T05:43:59.258Z,87.47
2023-01-06T05:46:28.644Z,87.25
2023-01-06T05:48:57.690Z,86.47
2023-01-06T05:51:26.761Z,85.96
2023-01-06T05:53:55.621Z,85.47
2023-01-06T05:56:25.851Z,85.77
2023-01-06T05:58:55.973Z,86.77
2023-01-06T06:01:27.301Z,86.66
2023-01-06T06:03:56.962Z,85.70
2023-01-06T06:06:27.971Z,86.42
2023-01-06T06:08:57.453Z,86.01
2023-01-06T06:11:26.702Z,86.40
2023-01-06T06:13:57.986Z,86.19
2023-01-06T06:16:29.827Z,86.38
2023-01-06T06:19:00.523Z,85.79
2023-01-06T06:21:32.753Z,84.35
2023-01-06T06:24:02.092Z,83.23
2023-01-06T06:26:31.518Z,83.30
2023-01-06T06:29:01.145Z,82.62
2023-01-06T06:31:31.615Z,83.11
2023-01-06T06:34:03.103Z,84.19
2023-01-06T06:36:34.158Z,83.54
2023-01-06T06:39:03.672Z,83.40
2023-01-06T06:41:32.935Z,82.74
2023-01-06T06:44:05.169Z,83.03
2023-01-06T06:46:34.806Z,82.27
2023-01-06T06:49:04.183Z,83.35
2023-01-06T06:51:33.358Z,83.54
2023-01-06T06:54:02.833Z,82.77
2023-01-06T06:56:31.920Z,83.15
2023-01-06T06:59:01.044Z,83.05
2023-01-06T07:01:32.791Z,83.79
2023-01-06T07:04:01.935Z,82.23
2023-01-06T07:06:30.986Z,82.81
2023-01-06T07:09:00.479Z,83.38
2023-01-06T07:11:30.211Z,82.27
2023-01-06T07:13:59.570Z,82.80
2023-01-06T07:16:28.457Z,83.07
2023-01-06T07:18:57.807Z,83.54
2023-01-06T07:21:27.200Z,82.79
2023-01-06T07:23:56.905Z,82.16
2023-01-06T07:26:26.569Z,81.41
2023-01-06T07:28:55.700Z,81.33
2023-01-06T07:31:25.010Z,79.70
2023-01-06T07:33:55.029Z,80.39
2023-01-06T07:36:24.375Z,80.46
2023-01-06T07:38:54.358Z,80.14
2023-01-06T07:41:23.440Z,79.84
2023-01-06T07:43:53.091Z,78.92
2023-01-06T07:46:22.692Z,79.90
2023-01-06T07:48:52.358Z,80.08
2023-01-06T07:51:21.745Z,79.18
2023-01-06T07:53:51.100Z,79.62
2023-01-06T07:56:20.486Z,79.66
2023-01-06T07:58:49.842Z,80.28
2023-01-06T08:01:19.153Z,79.41
2023-01-06T08:03:48.139Z,79.36
2023-01-06T08:06:17.608Z,78.98
2023-01-06T08:08:46.494Z,79.19
2023-01-06T08:11:16.064Z,78.47
2023-01-06T08:13:45.286Z,78.64
2023-01-06T08:16:15.026Z,77.99
2023-01-06T08:18:44.404Z,77.27
2023-01-06T08:21:13.625Z,77.14
2023-01-06T08:23:42.885Z,76.67
2023-01-06T08:26:17.435Z,78.22
2023-01-06T08:28:48.181Z,77.15
2023-01-06T08:31:21.088Z,76.64
2023-01-06T08:33:52.835Z,76.62
2023-01-06T08:36:24.987Z,77.21
2023-01-06T08:38:54.052Z,79.13
2023-01-06T08:41:23.699Z,78.64
2023-01-06T08:43:53.073Z,77.85
2023-01-06T08:46:22.353Z,77.46
2023-01-06T08:48:51.711Z,76.59
2023-01-06T08:51:24.730Z,77.41
2023-01-06T08:53:54.529Z,76.39
2023-01-06T08:56:27.912Z,76.92
2023-01-06T08:59:00.824Z,76.59
2023-01-06T09:01:36.290Z,76.63
2023-01-06T09:04:07.999Z,76.69
2023-01-06T09:06:38.097Z,76.38
2023-01-06T09:09:09.058Z,76.84
2023-01-06T09:11:39.062Z,77.52
2023-01-06T09:14:09.980Z,76.69
2023-01-06T09:16:42.509Z,76.26
2023-01-06T09:19:11.918Z,76.02
2023-01-06T09:21:43.819Z,76.99
2023-01-06T09:24:17.108Z,76.68
2023-01-06T09:26:46.508Z,75.66
2023-01-06T09:29:15.820Z,75.66
2023-01-06T09:31:45.274Z,75.63
2023-01-06T09:34:14.675Z,76.37
2023-01-06T09:36:43.707Z,75.88
2023-01-06T09:39:13.256Z,75.24
2023-01-06T09:41:46.538Z,75.35
2023-01-06T09:44:33.317Z,76.69
2023-01-06T09:47:04.468Z,77.31
2023-01-06T09:50:03.615Z,76.50
2023-01-06T09:53:05.134Z,77.36
2023-01-06T09:55:59.015Z,77.27
2023-01-06T09:58:35.993Z,78.44
2023-01-06T10:01:14.764Z,77.99
2023-01-06T10:03:48.957Z,77.20
2023-01-06T10:06:39.158Z,76.63
2023-01-06T10:09:45.093Z,76.83
2023-01-06T10:12:29.384Z,77.54
2023-01-06T10:15:02.253Z,78.03
2023-01-06T10:17:49.897Z,77.37
2023-01-06T10:20:21.778Z,77.41
2023-01-06T10:22:58.117Z,77.08
2023-01-06T10:25:34.895Z,77.63
2023-01-06T10:28:30.630Z,77.54
2023-01-06T10:31:12.462Z,78.70
2023-01-06T10:33:51.611Z,78.65
2023-01-06T10:36:34.384Z,78.88
2023-01-06T10:39:08.205Z,79.33
2023-01-06T10:41:45.936Z,78.95
2023-01-06T10:44:16.071Z,79.16
2023-01-06T10:46:48.095Z,79.43
2023-01-06T10:49:20.212Z,79.22
2023-01-06T10:52:00.533Z,80.00
2023-01-06T10:54:37.717Z,81.08
2023-01-06T10:57:18.526Z,81.57
2023-01-06T11:00:10.969Z,81.65
2023-01-06T11:03:19.449Z,80.25
2023-01-06T11:06:04.534Z,80.18
2023-01-06T11:08:34.641Z,80.98
2023-01-06T11:11:27.256Z,81.78
2023-01-06T11:14:05.962Z,81.19
2023-01-06T11:16:38.632Z,81.39
2023-01-06T11:19:22.936Z,82.06
2023-01-06T11:21:52.238Z,82.05
2023-01-06T11:24:25.679Z,81.82
2023-01-06T11:27:18.108Z,82.43
2023-01-06T11:29:48.040Z,82.96
2023-01-06T11:32:30.950Z,82.29
2023-01-06T11:35:06.874Z,82.95
2023-01-06T11:37:44.681Z,82.35
2023-01-06T11:40:31.003Z,82.79
2023-01-06T11:43:13.323Z,82.63
2023-01-06T11:45:48.971Z,83.37
2023-01-06T11:48:20.484Z,83.12
2023-01-06T11:51:06.849Z,82.81
2023-01-06T11:53:36.647Z,82.30
2023-01-06T11:56:24.622Z,82.47
2023-01-06T11:59:03.021Z,82.51
2023-01-06T12:02:00.394Z,82.78
2023-01-06T12:04:49.102Z,83.08
2023-01-06T12:07:33.920Z,83.04
2023-01-06T12:10:11.857Z,83.39
2023-01-06T12:12:41.056Z,83.50
2023-01-06T12:15:18.911Z,84.35
2023-01-06T12:17:55.424Z,83.97
2023-01-06T12:20:45.120Z,83.79
2023-01-06T12:23:25.650Z,84.34
2023-01-06T12:26:03.011Z,84.32
2023-01-06T12:28:42.496Z,85.01
2023-01-06T12:31:51.656Z,86.33
2023-01-06T12:34:39.499Z,86.45
2023-01-06T12:37:11.523Z,85.32
2023-01-06T12:40:03.780Z,85.28
2023-01-06T12:42:48.439Z,86.79
2023-01-06T12:45:32.447Z,86.67
2023-01-06T12:48:08.718Z,87.51
2023-01-06T12:50:46.818Z,87.96
2023-01-06T12:53:21.157Z,88.85
2023-01-06T12:56:20.029Z,88.67
2023-01-06T12:58:59.777Z,88.71
2023-01-06T13:01:50.969Z,88.08
2023-01-06T13:04:41.424Z,88.33
2023-01-06T13:07:26.321Z,88.83
2023-01-06T13:10:04.318Z,89.55
2023-01-06T13:12:47.326Z,90.48
2023-01-06T13:15:16.545Z,90.68
2023-01-06T13:18:23.939Z,90.20
2023-01-06T13:21:14.811Z,90.18
2023-01-06T13:23:53.214Z,89.49
2023-01-06T13:26:30.831Z,90.65
2023-01-06T13:29:08.798Z,90.75
2023-01-06T13:32:01.958Z,90.54
2023-01-06T13:34:46.315Z,89.84
2023-01-06T13:37:30.111Z,90.78
2023-01-06T13:40:01.138Z,90.49
2023-01-06T13:42:42.617Z,90.56
2023-01-06T13:45:26.127Z,90.45
2023-01-06T13:47:55.875Z,89.85
2023-01-06T13:50:27.481Z,91.01
2023-01-06T13:52:57.555Z,91.16
2023-01-06T13:55:39.931Z,90.63
2023-01-06T13:58:27.763Z,90.67
2023-01-06T14:01:17.361Z,90.23
2023-01-06T14:03:50.987Z,90.15
2023-01-06T14:06:26.318Z,90.81
2023-01-06T14:09:00.888Z,91.14
2023-01-06T14:11:34.036Z,91.01
2023-01-06T14:14:09.501Z,91.20
2023-01-06T14:16:48.338Z,91.62
2023-01-06T14:19:24.106Z,91.46
2023-01-06T14:21:57.326Z,91.25
2023-01-06T14:24:36.085Z,91.71
2023-01-06T14:27:08.208Z,91.40
2023-01-06T14:29:44.097Z,90.93
2023-01-06T14:32:36.244Z,91.73
2023-01-06T14:35:12.698Z,91.73
2023-01-06T14:37:52.687Z,91.82
2023-01-06T14:40:39.207Z,92.36
2023-01-06T14:43:26.701Z,91.67
2023-01-06T14:45:57.518Z,91.46
2023-01-06T14:48:30.284Z,91.34
2023-01-06T14:50:59.841Z,90.97
2023-01-06T14:53:34.688Z,91.23
2023-01-06T14:56:06.201Z,91.03
2023-01-06T14:58:40.333Z,90.79
2023-01-06T15:01:24.332Z,90.81
2023-01-06T15:03:58.640Z,91.01
2023-01-06T15:06:29.750Z,90.66
2023-01-06T15:09:23.906Z,90.99
2023-01-06T15:11:53.522Z,90.94
2023-01-06T15:14:30.824Z,91.04
2023-01-06T15:17:04.722Z,91.04
2023-01-06T15:19:35.728Z,91.03
2023-01-06T15:22:09.781Z,91.15
2023-01-06T15:24:44.253Z,91.00
2023-01-06T15:27:16.799Z,90.88
2023-01-06T15:29:56.231Z,90.25
2023-01-06T15:32:28.210Z,90.27
2023-01-06T15:35:00.421Z,90.58
2023-01-06T15:37:35.741Z,90.10
2023-01-06T15:40:07.274Z,90.51
2023-01-06T15:42:37.945Z,90.18
2023-01-06T15:45:08.085Z,90.52
2023-01-06T15:47:43.723Z,90.59
2023-01-06T15:50:22.571Z,90.67
2023-01-06T15:52:55.689Z,91.02
2023-01-06T15:55:44.177Z,90.54
2023-01-06T15:58:33.919Z,90.39
2023-01-06T16:01:05.046Z,90.60
2023-01-06T16:03:35.141Z,90.52
2023-01-06T16:06:12.383Z,90.55
2023-01-06T16:08:44.440Z,91.01
2023-01-06T16:11:38.289Z,90.83
2023-01-06T16:14:25.214Z,90.38
2023-01-06T16:16:55.716Z,90.41
2023-01-06T16:19:24.822Z,90.06
2023-01-06T16:21:55.864Z,90.63
2023-01-06T16:24:30.185Z,90.77
2023-01-06T16:27:07.385Z,90.54
2023-01-06T16:29:39.127Z,89.95
2023-01-06T16:32:30.148Z,90.50
2023-01-06T16:35:04.491Z,90.20
2023-01-06T16:37:36.934Z,90.47
2023-01-06T16:40:07.265Z,89.96
2023-01-06T16:42:46.144Z,90.14
2023-01-06T16:45:28.102Z,90.38
2023-01-06T16:47:58.006Z,90.24
2023-01-06T16:50:34.335Z,90.79
2023-01-06T16:53:11.048Z,90.50
2023-01-06T16:55:43.204Z,91.00
2023-01-06T16:58:21.629Z,91.57
2023-01-06T17:00:57.842Z,91.08
2023-01-06T17:04:12.166Z,90.97
2023-01-06T17:06:44.051Z,91.19
2023-01-06T17:09:23.238Z,90.80
2023-01-06T17:11:54.039Z,90.54
2023-01-06T17:14:25.316Z,91.41
2023-01-06T17:16:54.650Z,90.80
2023-01-06T17:19:29.534Z,90.89
2023-01-06T17:22:22.961Z,90.89
2023-01-06T17:24:57.345Z,90.79
2023-01-06T17:27:31.243Z,90.49
2023-01-06T17:30:08.777Z,90.49
2023-01-06T17:32:44.673Z,90.80
2023-01-06T17:35:29.481Z,90.45
2023-01-06T17:38:13.651Z,91.26
2023-01-06T17:40:48.094Z,91.40
2023-01-06T17:43:38.401Z,91.20
2023-01-06T17:46:37.563Z,90.67
2023-01-06T17:49:34.151Z,91.08
2023-01-06T17:52:16.120Z,90.66
2023-01-06T17:55:23.903Z,90.88
2023-01-06T17:57:57.208Z,90.59
2023-01-06T18:00:33.299Z,90.94
2023-01-06T18:03:16.151Z,90.67
2023-01-06T18:05:46.173Z,90.59
2023-01-06T18:08:21.283Z,90.44
2023-01-06T18:10:58.255Z,90.99
2023-01-06T18:13:42.985Z,90.82
2023-01-06T18:16:36.240Z,91.07
2023-01-06T18:19:33.200Z,90.94
2023-01-06T18:22:14.117Z,90.61
2023-01-06T18:24:44.203Z,90.69
2023-01-06T18:27:19.441Z,90.87
2023-01-06T18:29:49.440Z,90.70
2023-01-06T18:32:33.654Z,90.83
2023-01-06T18:35:10.291Z,90.77
2023-01-06T18:37:39.725Z,90.99
2023-01-06T18:40:20.110Z,91.44
2023-01-06T18:42:51.813Z,91.01
2023-01-06T18:45:24.137Z,91.34
2023-01-06T18:48:09.467Z,91.58
2023-01-06T18:50:44.772Z,91.50
2023-01-06T18:53:26.224Z,91.49
2023-01-06T18:55:59.854Z,91.51
2023-01-06T18:58:48.163Z,91.44
2023-01-06T19:01:23.405Z,91.26
2023-01-06T19:04:06.748Z,91.71
2023-01-06T19:06:46.128Z,92.14
2023-01-06T19:09:30.018Z,91.78
2023-01-06T19:12:11.415Z,93.56
2023-01-06T19:14:46.831Z,93.15
2023-01-06T19:17:41.655Z,92.98
2023-01-06T19:20:24.374Z,93.40
2023-01-06T19:22:56.037Z,92.45
2023-01-06T19:25:36.567Z,92.44
2023-01-06T19:28:19.045Z,93.25
2023-01-06T19:31:00.449Z,92.63
2023-01-06T19:34:03.602Z,92.58
2023-01-06T19:36:41.280Z,92.35
2023-01-06T19:39:28.152Z,92.89
2023-01-06T19:42:18.815Z,93.45
2023-01-06T19:44:51.711Z,94.24
2023-01-06T19:47:22.841Z,94.34
2023-01-06T19:49:56.919Z,93.45
2023-01-06T19:52:42.691Z,93.46
2023-01-06T19:55:24.002Z,93.62
2023-01-06T19:57:59.884Z,94.31
2023-01-06T20:00:45.239Z,94.49
2023-01-06T20:03:26.204Z,94.04
2023-01-06T20:05:55.980Z,93.81
2023-01-06T20:08:25.160Z,93.32
2023-01-06T20:10:56.281Z,93.69
2023-01-06T20:13:25.816Z,94.34
2023-01-06T20:15:54.927Z,93.70
2023-01-06T20:18:23.962Z,93.51
2023-01-06T20:20:53.343Z,93.14
2023-01-06T20:23:22.563Z,92.70
2023-01-06T20:25:51.562Z,94.01
2023-01-06T20:28:20.752Z,93.69
2023-01-06T20:30:50.149Z,93.32
2023-01-06T20:33:19.534Z,93.18
2023-01-06T20:35:48.258Z,93.02
2023-01-06T20:38:17.745Z,92.69
2023-01-06T20:40:46.846Z,92.64
2023-01-06T20:43:16.354Z,93.20
2023-01-06T20:45:45.626Z,93.82
2023-01-06T20:48:14.809Z,93.54
2023-01-06T20:50:43.774Z,93.34
2023-01-06T20:53:13.104Z,93.16
2023-01-06T20:55:42.187Z,92.91
2023-01-06T20:58:11.223Z,93.80
2023-01-06T21:00:40.309Z,94.40
2023-01-06T21:03:09.399Z,93.55
2023-01-06T21:05:38.293Z,93.15
2023-01-06T21:08:07.536Z,93.06
2023-01-06T21:10:37.680Z,92.79
2023-01-06T21:13:07.320Z,93.14
2023-01-06T21:15:36.663Z,92.88
2023-01-06T21:18:05.927Z,93.12
2023-01-06T21:20:35.296Z,92.64
2023-01-06T21:23:04.134Z,93.33
2023-01-06T21:25:33.433Z,92.46
2023-01-06T21:28:02.688Z,92.67
2023-01-06T21:30:33.026Z,92.93
2023-01-06T21:33:02.321Z,92.68
2023-01-06T21:35:31.611Z,92.93
2023-01-06T21:38:00.877Z,93.05
2023-01-06T21:40:29.874Z,93.48
2023-01-06T21:43:11.457Z,92.68
2023-01-06T21:45:46.582Z,93.02
2023-01-06T21:48:16.080Z,92.93
2023-01-06T21:50:46.381Z,93.74
2023-01-06T21:53:16.089Z,92.89
2023-01-06T21:55:46.078Z,92.97
2023-01-06T21:58:15.042Z,93.82
2023-01-06T22:00:44.410Z,93.43
2023-01-06T22:03:14.062Z,94.25
2023-01-06T22:05:45.137Z,93.38
2023-01-06T22:08:14.369Z,93.02
2023-01-06T22:10:45.239Z,92.95
2023-01-06T22:13:17.843Z,92.61
2023-01-06T22:15:46.939Z,92.33
2023-01-06T22:18:16.504Z,92.20
2023-01-06T22:20:46.200Z,92.40
2023-01-06T22:23:19.333Z,92.16
2023-01-06T22:25:48.993Z,92.52
2023-01-06T22:28:18.615Z,92.49
2023-01-06T22:30:48.162Z,92.48
2023-01-06T22:33:19.104Z,92.97
2023-01-06T22:35:48.615Z,93.16
2023-01-06T22:38:17.807Z,93.88
2023-01-06T22:40:48.333Z,93.67
2023-01-06T22:43:19.082Z,93.18
2023-01-06T22:45:55.514Z,93.38
2023-01-06T22:48:26.022Z,94.59
2023-01-06T22:51:00.311Z,94.40
2023-01-06T22:53:31.751Z,94.23
2023-01-06T22:56:06.258Z,93.85
2023-01-06T22:58:37.197Z,94.25
2023-01-06T23:01:07.972Z,93.89
2023-01-06T23:03:38.574Z,94.19
2023-01-06T23:06:11.178Z,94.07
2023-01-06T23:08:58.605Z,94.93
2023-01-06T23:11:29.702Z,94.87
2023-01-06T23:14:00.017Z,95.05
2023-01-06T23:16:30.924Z,95.02
2023-01-06T23:19:00.638Z,94.68
2023-01-06T23:21:32.407Z,95.06
2023-01-06T23:24:01.596Z,95.41
2023-01-06T23:26:34.995Z,95.74
2023-01-06T23:29:04.760Z,95.31
2023-01-06T23:31:37.435Z,95.40
2023-01-06T23:34:08.319Z,95.23
2023-01-06T23:36:39.329Z,95.31
2023-01-06T23:39:10.465Z,95.31
2023-01-06T23:41:40.482Z,95.31
2023-01-06T23:44:12.852Z,95.49
2023-01-06T23:46:42.243Z,96.00
2023-01-06T23:49:14.102Z,95.74
2023-01-06T23:51:43.782Z,95.56
2023-01-06T23:54:13.461Z,95.84
2023-01-06T23:56:43.371Z,95.96
2023-01-06T23:59:14.180Z,95.58
